Time;durP1;ratioP1;P1;durP2;ratioP2;P2;SDS_P1;SDS_P2;PMS_P1;PMS_P2;Temp;Humidity;BMP_temperature;BMP_pressure;BME280_temperature;BME280_humidity;BME280_pressure;Samples;Min_cycle;Max_cycle;Signal;HPM_P1;HPM_P2
2021/11/26 00:01:12;;;;;;;10.07;5.13;;;;;;;;;;5114768;28;20233;-76
2021/11/26 00:03:41;;;;;;;9.10;4.73;;;;;;;;;;5114681;28;20263;-75
2021/11/26 00:06:08;;;;;;;10.67;5.10;;;;;;;;;;5114888;28;20303;-75
2021/11/26 00:08:35;;;;;;;11.30;4.83;;;;;;;;;;5118063;27;20288;-75
2021/11/26 00:11:02;;;;;;;12.60;4.93;;;;;;;;;;5115451;27;20241;-76
2021/11/26 00:13:32;;;;;;;12.20;5.33;;;;;;;;;;5116607;27;20186;-76
2021/11/26 00:16:05;;;;;;;15.30;6.40;;;;;;;;;;5114698;28;20267;-75
2021/11/26 00:18:35;;;;;;;16.43;8.70;;;;;;;;;;5112560;28;20198;-75
2021/11/26 00:21:04;;;;;;;18.03;9.27;;;;;;;;;;5114512;28;20195;-75
2021/11/26 00:23:31;;;;;;;17.67;9.30;;;;;;;;;;5118363;27;20305;-76
2021/11/26 00:25:58;;;;;;;15.70;10.23;;;;;;;;;;5113826;27;20791;-75
2021/11/26 00:28:26;;;;;;;15.97;9.03;;;;;;;;;;5114407;28;20296;-75
2021/11/26 00:30:54;;;;;;;16.80;9.27;;;;;;;;;;5131702;27;20235;-75
2021/11/26 00:33:21;;;;;;;16.13;9.20;;;;;;;;;;5117060;27;20203;-75
2021/11/26 00:35:48;;;;;;;18.43;9.33;;;;;;;;;;5113583;28;20306;-75
2021/11/26 00:38:17;;;;;;;16.07;9.73;;;;;;;;;;5114316;28;20221;-75
2021/11/26 00:40:44;;;;;;;17.07;10.10;;;;;;;;;;5114560;28;20221;-75
2021/11/26 00:43:12;;;;;;;18.33;10.07;;;;;;;;;;5113144;27;20213;-75
2021/11/26 00:45:39;;;;;;;16.60;9.70;;;;;;;;;;5113703;27;20631;-75
2021/11/26 00:48:06;;;;;;;18.27;10.43;;;;;;;;;;5113535;28;20259;-75
2021/11/26 00:50:35;;;;;;;20.07;11.43;;;;;;;;;;5113736;28;20284;-75
2021/11/26 00:53:03;;;;;;;25.47;10.70;;;;;;;;;;5113804;28;20201;-75
2021/11/26 00:55:31;;;;;;;17.97;10.20;;;;;;;;;;5113698;28;20221;-75
2021/11/26 00:57:58;;;;;;;15.97;9.13;;;;;;;;;;5112720;28;20237;-75
2021/11/26 01:00:26;;;;;;;13.23;7.13;;;;;;;;;;5116934;27;20280;-75
2021/11/26 01:02:53;;;;;;;17.37;6.60;;;;;;;;;;5118678;27;20312;-75
2021/11/26 01:05:20;;;;;;;13.00;6.53;;;;;;;;;;5121011;27;20625;-75
2021/11/26 01:07:48;;;;;;;15.67;6.50;;;;;;;;;;5112694;28;20293;-75
2021/11/26 01:10:19;;;;;;;13.10;7.13;;;;;;;;;;5126626;27;20284;-75
2021/11/26 01:12:49;;;;;;;13.30;7.00;;;;;;;;;;5128952;27;20280;-75
2021/11/26 01:15:17;;;;;;;11.97;7.13;;;;;;;;;;5113758;27;20253;-75
2021/11/26 01:17:45;;;;;;;12.43;7.43;;;;;;;;;;5119179;27;20242;-75
2021/11/26 01:20:14;;;;;;;12.90;7.50;;;;;;;;;;5115915;27;20313;-75
2021/11/26 01:22:41;;;;;;;14.90;8.10;;;;;;;;;;5119493;27;20213;-75
2021/11/26 01:25:09;;;;;;;13.93;7.93;;;;;;;;;;5133444;27;20267;-75
2021/11/26 01:27:37;;;;;;;12.67;7.80;;;;;;;;;;5115066;27;20647;-75
2021/11/26 01:30:12;;;;;;;12.93;7.87;;;;;;;;;;5130090;27;20277;-76
2021/11/26 01:32:39;;;;;;;15.33;8.07;;;;;;;;;;5115651;27;20196;-75
2021/11/26 01:35:06;;;;;;;13.73;7.57;;;;;;;;;;5116573;27;20659;-75
2021/11/26 01:37:34;;;;;;;10.87;6.77;;;;;;;;;;5112123;28;20241;-75
2021/11/26 01:40:01;;;;;;;14.17;7.13;;;;;;;;;;5112273;28;20205;-75
2021/11/26 01:42:30;;;;;;;15.70;7.33;;;;;;;;;;5117940;27;20238;-75
2021/11/26 01:44:57;;;;;;;11.00;6.60;;;;;;;;;;5112728;28;20289;-76
2021/11/26 01:47:26;;;;;;;11.90;7.27;;;;;;;;;;5116060;27;20190;-75
2021/11/26 01:49:54;;;;;;;12.63;6.90;;;;;;;;;;5117312;27;20236;-75
2021/11/26 01:52:21;;;;;;;12.23;7.27;;;;;;;;;;5119436;27;20712;-75
2021/11/26 01:54:48;;;;;;;9.60;6.70;;;;;;;;;;5119429;27;20285;-76
2021/11/26 01:57:17;;;;;;;10.50;6.83;;;;;;;;;;5115487;27;20642;-75
2021/11/26 01:59:45;;;;;;;13.37;7.67;;;;;;;;;;5114026;28;20218;-75
2021/11/26 02:02:12;;;;;;;14.50;7.53;;;;;;;;;;5114927;27;20194;-75
2021/11/26 02:04:40;;;;;;;13.20;8.00;;;;;;;;;;5112460;28;20220;-76
2021/11/26 02:07:07;;;;;;;13.97;7.60;;;;;;;;;;5112042;28;20284;-75
2021/11/26 02:09:35;;;;;;;14.47;7.10;;;;;;;;;;5111749;28;20233;-75
2021/11/26 02:12:02;;;;;;;11.57;6.90;;;;;;;;;;5115219;27;20229;-76
2021/11/26 02:14:30;;;;;;;13.00;6.97;;;;;;;;;;5112670;28;20310;-75
2021/11/26 02:16:57;;;;;;;12.67;7.33;;;;;;;;;;5114184;27;20213;-75
2021/11/26 02:19:25;;;;;;;13.60;6.90;;;;;;;;;;5115612;27;20650;-75
2021/11/26 02:21:54;;;;;;;15.07;7.63;;;;;;;;;;5124192;27;20747;-75
2021/11/26 02:24:22;;;;;;;13.40;7.63;;;;;;;;;;5112244;27;20252;-75
2021/11/26 02:26:50;;;;;;;13.77;9.00;;;;;;;;;;5111146;28;20200;-75
2021/11/26 02:29:18;;;;;;;16.53;9.20;;;;;;;;;;5111763;28;20314;-75
2021/11/26 02:31:46;;;;;;;16.37;9.30;;;;;;;;;;5112135;28;20683;-75
2021/11/26 02:34:13;;;;;;;15.40;9.10;;;;;;;;;;5111085;28;20234;-75
2021/11/26 02:36:40;;;;;;;14.97;8.23;;;;;;;;;;5111238;28;20237;-75
2021/11/26 02:39:09;;;;;;;14.60;7.70;;;;;;;;;;5117993;27;20229;-76
2021/11/26 02:41:37;;;;;;;14.80;7.40;;;;;;;;;;5110065;28;20203;-75
2021/11/26 02:44:04;;;;;;;11.73;6.87;;;;;;;;;;5117135;27;20651;-75
2021/11/26 02:46:31;;;;;;;13.27;6.83;;;;;;;;;;5111228;28;20234;-75
2021/11/26 02:48:58;;;;;;;11.77;5.77;;;;;;;;;;5125762;28;20340;-75
2021/11/26 02:51:26;;;;;;;11.47;5.57;;;;;;;;;;5132647;28;20239;-75
2021/11/26 02:53:53;;;;;;;11.87;6.00;;;;;;;;;;5128962;28;20289;-76
2021/11/26 02:56:22;;;;;;;10.87;5.07;;;;;;;;;;5111740;28;20292;-75
2021/11/26 02:58:49;;;;;;;13.10;5.20;;;;;;;;;;5132287;28;20287;-75
2021/11/26 03:01:16;;;;;;;11.70;4.70;;;;;;;;;;5116548;28;20284;-75
2021/11/26 03:03:43;;;;;;;15.27;5.53;;;;;;;;;;5110952;28;20874;-75
2021/11/26 03:06:11;;;;;;;12.60;5.10;;;;;;;;;;5111252;28;20746;-75
2021/11/26 03:08:38;;;;;;;10.50;5.30;;;;;;;;;;5122776;28;20267;-75
2021/11/26 03:11:06;;;;;;;10.00;5.10;;;;;;;;;;5110397;28;20241;-75
2021/11/26 03:13:35;;;;;;;12.47;5.30;;;;;;;;;;5111831;28;20685;-75
2021/11/26 03:16:02;;;;;;;11.67;5.30;;;;;;;;;;5104501;28;20289;-75
2021/11/26 03:18:29;;;;;;;16.87;5.10;;;;;;;;;;5122466;28;20286;-75
2021/11/26 03:20:57;;;;;;;10.87;5.20;;;;;;;;;;5128648;28;20267;-75
2021/11/26 03:23:25;;;;;;;10.73;5.17;;;;;;;;;;5111324;28;20686;-75
2021/11/26 03:25:52;;;;;;;11.70;5.10;;;;;;;;;;5106526;28;20281;-75
2021/11/26 03:28:20;;;;;;;12.50;5.27;;;;;;;;;;5106588;28;20750;-75
2021/11/26 03:30:49;;;;;;;11.20;4.90;;;;;;;;;;5111224;28;20283;-75
2021/11/26 03:33:16;;;;;;;16.03;5.30;;;;;;;;;;5110581;28;20225;-75
2021/11/26 03:35:44;;;;;;;9.83;4.50;;;;;;;;;;5110911;28;20226;-75
2021/11/26 03:38:11;;;;;;;15.00;4.40;;;;;;;;;;5120616;28;20286;-75
2021/11/26 03:40:38;;;;;;;13.00;4.30;;;;;;;;;;5110916;28;20531;-75
2021/11/26 03:43:06;;;;;;;10.23;4.83;;;;;;;;;;5110827;28;20229;-75
2021/11/26 03:45:34;;;;;;;14.03;6.53;;;;;;;;;;5111426;28;20596;-75
2021/11/26 03:48:02;;;;;;;18.37;7.40;;;;;;;;;;5111557;28;20233;-75
2021/11/26 03:50:31;;;;;;;10.70;5.50;;;;;;;;;;5113822;28;20195;-75
2021/11/26 03:52:58;;;;;;;11.23;5.40;;;;;;;;;;5111519;28;20198;-75
2021/11/26 03:55:29;;;;;;;11.33;5.27;;;;;;;;;;5114594;28;20740;-75
2021/11/26 03:57:57;;;;;;;11.77;5.07;;;;;;;;;;5096736;28;20225;-75
2021/11/26 04:00:24;;;;;;;10.47;5.30;;;;;;;;;;5115474;27;20202;-75
2021/11/26 04:02:52;;;;;;;11.90;5.80;;;;;;;;;;5113842;28;20239;-75
2021/11/26 04:05:20;;;;;;;12.23;5.60;;;;;;;;;;5114571;28;20722;-75
2021/11/26 04:07:48;;;;;;;12.60;5.27;;;;;;;;;;5112884;28;20231;-75
2021/11/26 04:10:16;;;;;;;12.13;5.77;;;;;;;;;;5116706;27;20281;-75
2021/11/26 04:12:45;;;;;;;12.77;6.27;;;;;;;;;;5118718;27;20602;-75
2021/11/26 04:15:13;;;;;;;9.10;5.90;;;;;;;;;;5120461;27;20305;-75
2021/11/26 04:17:41;;;;;;;13.23;6.30;;;;;;;;;;5114642;28;20806;-75
2021/11/26 04:20:09;;;;;;;13.17;5.87;;;;;;;;;;5113293;27;20232;-75
2021/11/26 04:22:38;;;;;;;14.27;5.83;;;;;;;;;;5114773;28;20677;-75
2021/11/26 04:25:06;;;;;;;13.37;6.00;;;;;;;;;;5116971;27;20391;-75
2021/11/26 04:27:33;;;;;;;13.93;6.17;;;;;;;;;;5114811;28;20272;-75
2021/11/26 04:30:00;;;;;;;13.80;6.23;;;;;;;;;;5113800;28;20292;-75
2021/11/26 04:32:27;;;;;;;10.73;5.90;;;;;;;;;;5125709;27;20205;-75
2021/11/26 04:34:55;;;;;;;9.77;5.53;;;;;;;;;;5114516;27;20665;-75
2021/11/26 04:37:22;;;;;;;11.67;5.80;;;;;;;;;;5113563;28;20212;-75
2021/11/26 04:39:51;;;;;;;14.57;6.47;;;;;;;;;;5114279;28;20250;-75
2021/11/26 04:42:18;;;;;;;13.17;7.10;;;;;;;;;;5113102;27;20204;-75
2021/11/26 04:44:45;;;;;;;11.30;6.50;;;;;;;;;;5127715;27;20684;-75
2021/11/26 04:47:13;;;;;;;16.70;6.90;;;;;;;;;;5113582;28;20202;-76
2021/11/26 04:49:40;;;;;;;10.20;6.23;;;;;;;;;;5113316;28;20230;-75
2021/11/26 04:52:07;;;;;;;11.87;6.27;;;;;;;;;;5113888;27;20197;-75
2021/11/26 04:54:35;;;;;;;13.40;6.73;;;;;;;;;;5113058;28;20276;-75
2021/11/26 04:57:03;;;;;;;11.47;6.97;;;;;;;;;;5114756;27;20591;-75
2021/11/26 04:59:30;;;;;;;12.27;7.07;;;;;;;;;;5113349;28;20394;-75
2021/11/26 05:01:58;;;;;;;15.13;7.47;;;;;;;;;;5113975;27;20285;-75
2021/11/26 05:04:25;;;;;;;14.20;7.97;;;;;;;;;;5127331;27;20307;-75
2021/11/26 05:06:52;;;;;;;16.53;8.80;;;;;;;;;;5120023;27;20277;-75
2021/11/26 05:09:19;;;;;;;14.20;8.03;;;;;;;;;;5113386;27;20202;-75
2021/11/26 05:11:46;;;;;;;13.53;7.80;;;;;;;;;;5131506;27;20280;-75
2021/11/26 05:14:18;;;;;;;14.17;7.80;;;;;;;;;;5127974;27;20781;-75
2021/11/26 05:16:46;;;;;;;17.33;7.50;;;;;;;;;;5127036;27;20200;-75
2021/11/26 05:19:13;;;;;;;13.13;7.67;;;;;;;;;;5120122;27;20308;-75
2021/11/26 05:21:40;;;;;;;16.23;7.90;;;;;;;;;;5119265;27;20285;-76
2021/11/26 05:24:07;;;;;;;12.27;7.77;;;;;;;;;;5113527;28;20317;-75
2021/11/26 05:26:35;;;;;;;12.83;7.90;;;;;;;;;;5118968;27;20298;-75
2021/11/26 05:29:03;;;;;;;16.87;8.17;;;;;;;;;;5113225;27;20205;-75
2021/11/26 05:31:36;;;;;;;18.10;8.20;;;;;;;;;;5123381;27;20276;-75
2021/11/26 05:34:03;;;;;;;14.20;8.37;;;;;;;;;;5112705;28;20251;-75
2021/11/26 05:36:30;;;;;;;13.47;8.57;;;;;;;;;;5112959;27;20288;-75
2021/11/26 05:38:57;;;;;;;12.83;7.67;;;;;;;;;;5112717;28;20225;-75
2021/11/26 05:41:24;;;;;;;11.47;7.53;;;;;;;;;;5114654;27;20712;-75
2021/11/26 05:43:52;;;;;;;14.10;8.37;;;;;;;;;;5117071;27;20601;-75
2021/11/26 05:46:19;;;;;;;12.50;7.73;;;;;;;;;;5112399;28;20229;-75
2021/11/26 05:48:47;;;;;;;14.93;7.93;;;;;;;;;;5112956;28;20293;-75
2021/11/26 05:51:15;;;;;;;13.67;8.07;;;;;;;;;;5112913;28;20277;-75
2021/11/26 05:53:42;;;;;;;14.20;7.60;;;;;;;;;;5114804;27;20186;-75
2021/11/26 05:56:10;;;;;;;14.80;8.17;;;;;;;;;;5115472;27;20280;-76
2021/11/26 05:58:37;;;;;;;12.00;8.23;;;;;;;;;;5120601;27;20273;-75
2021/11/26 06:01:04;;;;;;;14.27;7.77;;;;;;;;;;5119391;27;20225;-76
2021/11/26 06:03:32;;;;;;;12.90;8.50;;;;;;;;;;5111683;28;20305;-75
2021/11/26 06:06:00;;;;;;;12.07;7.63;;;;;;;;;;5115436;27;20238;-76
2021/11/26 06:08:28;;;;;;;12.70;8.20;;;;;;;;;;5111765;27;20295;-76
2021/11/26 06:10:55;;;;;;;15.80;8.47;;;;;;;;;;5123301;27;20200;-76
2021/11/26 06:13:23;;;;;;;14.63;8.23;;;;;;;;;;5114924;27;20207;-76
2021/11/26 06:15:50;;;;;;;13.40;8.07;;;;;;;;;;5111412;28;20308;-76
2021/11/26 06:18:17;;;;;;;12.77;8.47;;;;;;;;;;5105240;27;20225;-76
2021/11/26 06:20:44;;;;;;;16.77;8.60;;;;;;;;;;5111068;28;20312;-76
2021/11/26 06:23:13;;;;;;;11.97;7.97;;;;;;;;;;5111758;28;20281;-76
2021/11/26 06:25:40;;;;;;;15.17;8.13;;;;;;;;;;5109488;28;20310;-76
2021/11/26 06:28:08;;;;;;;11.53;8.53;;;;;;;;;;5108439;28;20303;-76
2021/11/26 06:30:35;;;;;;;14.07;8.50;;;;;;;;;;5110465;27;20285;-76
2021/11/26 06:33:02;;;;;;;13.93;8.50;;;;;;;;;;5111310;28;20304;-76
2021/11/26 06:35:29;;;;;;;13.77;8.53;;;;;;;;;;5111001;28;20279;-75
2021/11/26 06:37:57;;;;;;;14.10;8.37;;;;;;;;;;5111412;28;20248;-76
2021/11/26 06:40:26;;;;;;;14.10;7.80;;;;;;;;;;5111529;28;20214;-76
2021/11/26 06:42:54;;;;;;;12.47;7.53;;;;;;;;;;5109516;28;20211;-75
2021/11/26 06:45:21;;;;;;;11.67;7.40;;;;;;;;;;5110701;28;20260;-76
2021/11/26 06:47:48;;;;;;;12.43;7.80;;;;;;;;;;5097365;28;20305;-76
2021/11/26 06:50:16;;;;;;;13.10;7.13;;;;;;;;;;5110464;28;20627;-76
2021/11/26 06:52:43;;;;;;;12.07;7.13;;;;;;;;;;5106680;28;20241;-76
2021/11/26 06:55:11;;;;;;;14.00;7.57;;;;;;;;;;5110234;28;20302;-76
2021/11/26 06:57:40;;;;;;;12.53;7.37;;;;;;;;;;5110900;28;20230;-75
2021/11/26 07:00:08;;;;;;;12.27;7.33;;;;;;;;;;5110851;28;20226;-76
2021/11/26 07:02:36;;;;;;;11.57;6.97;;;;;;;;;;5110516;28;20204;-76
2021/11/26 07:05:03;;;;;;;11.70;7.17;;;;;;;;;;5108122;28;20305;-76
2021/11/26 07:07:31;;;;;;;12.17;7.00;;;;;;;;;;5111019;28;20244;-76
2021/11/26 07:09:58;;;;;;;11.43;7.13;;;;;;;;;;5111019;28;20289;-76
2021/11/26 07:12:25;;;;;;;12.63;7.17;;;;;;;;;;5110576;28;20295;-76
2021/11/26 07:14:54;;;;;;;13.73;7.00;;;;;;;;;;5110768;28;20207;-76
2021/11/26 07:17:21;;;;;;;11.23;7.20;;;;;;;;;;5104894;28;20288;-76
2021/11/26 07:19:49;;;;;;;11.77;7.60;;;;;;;;;;5110961;28;20314;-76
2021/11/26 07:22:17;;;;;;;19.20;8.50;;;;;;;;;;5110380;28;20218;-76
2021/11/26 07:24:44;;;;;;;14.53;8.03;;;;;;;;;;5110708;28;20231;-76
2021/11/26 07:27:12;;;;;;;13.17;7.47;;;;;;;;;;5116287;28;20615;-76
2021/11/26 07:29:39;;;;;;;13.87;8.10;;;;;;;;;;5113476;28;20239;-76
2021/11/26 07:32:08;;;;;;;13.43;7.77;;;;;;;;;;5114812;28;20231;-76
2021/11/26 07:34:35;;;;;;;11.50;7.20;;;;;;;;;;5114453;28;20228;-76
2021/11/26 07:37:02;;;;;;;12.23;7.50;;;;;;;;;;5114101;28;20235;-76
2021/11/26 07:39:33;;;;;;;11.23;7.37;;;;;;;;;;5114263;28;20290;-75
2021/11/26 07:42:03;;;;;;;9.77;6.73;;;;;;;;;;5114196;28;20200;-76
2021/11/26 07:44:30;;;;;;;9.93;6.07;;;;;;;;;;5111850;28;20320;-76
2021/11/26 07:46:57;;;;;;;10.77;5.97;;;;;;;;;;5114751;28;20663;-76
2021/11/26 07:49:28;;;;;;;12.83;5.80;;;;;;;;;;5114347;28;20641;-76
2021/11/26 07:51:56;;;;;;;8.10;5.10;;;;;;;;;;5114157;28;20197;-76
2021/11/26 07:54:23;;;;;;;10.23;5.17;;;;;;;;;;5114489;28;20200;-75
2021/11/26 07:56:50;;;;;;;14.97;5.40;;;;;;;;;;5113115;28;20284;-76
2021/11/26 07:59:17;;;;;;;10.47;5.00;;;;;;;;;;5114884;28;20288;-75
2021/11/26 08:01:45;;;;;;;9.13;4.80;;;;;;;;;;5110464;27;20302;-76
2021/11/26 08:04:14;;;;;;;10.87;5.20;;;;;;;;;;5121465;27;20301;-76
2021/11/26 08:06:45;;;;;;;9.57;5.27;;;;;;;;;;5114443;28;20203;-75
2021/11/26 08:09:12;;;;;;;11.50;5.60;;;;;;;;;;5114297;28;20552;-76
2021/11/26 08:11:39;;;;;;;11.60;5.53;;;;;;;;;;5114012;28;20207;-76
2021/11/26 08:14:07;;;;;;;11.57;5.93;;;;;;;;;;5114380;28;20232;-76
2021/11/26 08:16:34;;;;;;;9.83;5.47;;;;;;;;;;5114606;28;20343;-76
2021/11/26 08:19:01;;;;;;;10.13;4.70;;;;;;;;;;5114080;28;20327;-76
2021/11/26 08:21:28;;;;;;;10.10;5.27;;;;;;;;;;5114689;28;20287;-77
2021/11/26 08:23:57;;;;;;;14.50;5.23;;;;;;;;;;5113791;28;20286;-76
2021/11/26 08:26:24;;;;;;;9.90;5.33;;;;;;;;;;5111780;27;20236;-75
2021/11/26 08:28:51;;;;;;;8.97;5.70;;;;;;;;;;5112683;28;20254;-76
2021/11/26 08:31:18;;;;;;;8.60;5.00;;;;;;;;;;5108470;28;20288;-76
2021/11/26 08:33:46;;;;;;;13.40;5.20;;;;;;;;;;5114087;28;20300;-76
2021/11/26 08:36:13;;;;;;;8.17;4.80;;;;;;;;;;5111866;28;20281;-76
2021/11/26 08:38:40;;;;;;;7.53;4.63;;;;;;;;;;5112639;28;20292;-76
2021/11/26 08:41:08;;;;;;;7.67;5.00;;;;;;;;;;5112048;28;20291;-76
2021/11/26 08:43:38;;;;;;;10.03;4.83;;;;;;;;;;5114755;28;20265;-76
2021/11/26 08:46:06;;;;;;;13.10;5.57;;;;;;;;;;5113769;28;20228;-77
2021/11/26 08:48:33;;;;;;;12.93;6.13;;;;;;;;;;5114170;28;20288;-76
2021/11/26 08:51:00;;;;;;;15.13;6.77;;;;;;;;;;5113807;28;20205;-76
2021/11/26 08:53:28;;;;;;;14.07;6.60;;;;;;;;;;5114049;28;20289;-76
2021/11/26 08:55:56;;;;;;;16.27;6.60;;;;;;;;;;5113637;28;20196;-76
2021/11/26 08:58:24;;;;;;;14.53;6.33;;;;;;;;;;5113567;28;20660;-76
2021/11/26 09:00:51;;;;;;;8.97;5.07;;;;;;;;;;5114277;28;20287;-75
2021/11/26 09:03:19;;;;;;;11.90;5.60;;;;;;;;;;5113756;28;20296;-76
2021/11/26 09:05:46;;;;;;;10.57;5.33;;;;;;;;;;5113823;28;20267;-76
2021/11/26 09:08:15;;;;;;;9.07;4.67;;;;;;;;;;5113208;28;20292;-76
2021/11/26 09:10:43;;;;;;;11.23;5.13;;;;;;;;;;5113646;28;20205;-76
2021/11/26 09:13:11;;;;;;;10.73;5.10;;;;;;;;;;5113510;28;20193;-76
2021/11/26 09:15:40;;;;;;;9.23;4.33;;;;;;;;;;5113628;28;20296;-76
2021/11/26 09:18:07;;;;;;;8.30;4.07;;;;;;;;;;5114284;28;20565;-76
2021/11/26 09:20:35;;;;;;;8.17;3.80;;;;;;;;;;5113707;28;20261;-76
2021/11/26 09:23:02;;;;;;;6.63;4.07;;;;;;;;;;5113674;28;20259;-75
2021/11/26 09:25:30;;;;;;;5.80;3.30;;;;;;;;;;5113289;28;20304;-76
2021/11/26 09:27:57;;;;;;;6.87;3.07;;;;;;;;;;5113884;28;20615;-76
2021/11/26 09:30:26;;;;;;;6.47;3.47;;;;;;;;;;5113575;28;20297;-76
2021/11/26 09:32:55;;;;;;;6.53;3.13;;;;;;;;;;5114095;28;20239;-76
2021/11/26 09:35:22;;;;;;;7.97;3.83;;;;;;;;;;5112772;28;20721;-76
2021/11/26 09:37:50;;;;;;;7.53;3.80;;;;;;;;;;5112574;28;20278;-76
2021/11/26 09:40:18;;;;;;;7.83;3.97;;;;;;;;;;5113384;28;20281;-76
2021/11/26 09:42:45;;;;;;;5.87;2.80;;;;;;;;;;5113086;28;20262;-76
2021/11/26 09:45:15;;;;;;;6.03;3.10;;;;;;;;;;5113299;28;20257;-76
2021/11/26 09:47:42;;;;;;;7.47;3.47;;;;;;;;;;5113018;28;20233;-76
2021/11/26 09:50:11;;;;;;;7.30;2.70;;;;;;;;;;5113029;28;20234;-76
2021/11/26 09:52:39;;;;;;;6.70;2.50;;;;;;;;;;5112057;28;20240;-76
2021/11/26 09:55:08;;;;;;;5.00;2.33;;;;;;;;;;5113136;28;20194;-76
2021/11/26 09:57:35;;;;;;;6.60;2.90;;;;;;;;;;5112772;28;20741;-76
2021/11/26 10:00:04;;;;;;;7.73;3.00;;;;;;;;;;5112926;28;20285;-75
2021/11/26 10:02:32;;;;;;;8.77;3.30;;;;;;;;;;5112520;28;20238;-76
2021/11/26 10:05:00;;;;;;;5.30;3.30;;;;;;;;;;5112336;28;20309;-76
2021/11/26 10:07:29;;;;;;;9.73;2.83;;;;;;;;;;5112315;28;20231;-76
2021/11/26 10:10:06;;;;;;;7.90;3.00;;;;;;;;;;5112507;28;20230;-76
2021/11/26 10:12:33;;;;;;;4.95;2.67;;;;;;;;;;4756831;27;9999672;-76
2021/11/26 10:15:01;;;;;;;7.23;2.83;;;;;;;;;;5109719;28;21031;-76
2021/11/26 10:17:28;;;;;;;5.30;2.80;;;;;;;;;;5110057;28;20638;-77
2021/11/26 10:19:56;;;;;;;6.30;3.00;;;;;;;;;;5109352;28;20258;-75
2021/11/26 10:22:24;;;;;;;5.93;2.90;;;;;;;;;;5109325;28;20269;-76
2021/11/26 10:25:03;;;;;;;5.17;2.70;;;;;;;;;;5109186;28;20236;-75
2021/11/26 10:27:40;;;;;;;6.57;2.50;;;;;;;;;;5109782;28;20199;-76
2021/11/26 10:30:17;;;;;;;8.97;2.60;;;;;;;;;;5113349;27;20214;-76
2021/11/26 10:35:53;;;;;;;7.30;3.07;;;;;;;;;;5134245;27;20174;-76
2021/11/26 10:41:40;;;;;;;7.00;2.60;;;;;;;;;;5134177;27;20662;-76
2021/11/26 10:44:11;;;;;;;7.47;2.53;;;;;;;;;;5129146;27;20207;-76
2021/11/26 10:46:44;;;;;;;11.03;3.40;;;;;;;;;;5111249;28;20215;-76
2021/11/26 10:49:38;;;;;;;8.60;2.90;;;;;;;;;;5108738;28;20207;-76
2021/11/26 10:57:43;;;;;;;6.53;2.70;;;;;;;;;;5112084;28;20205;-76
2021/11/26 11:00:12;;;;;;;7.40;2.40;;;;;;;;;;5116244;28;20203;-76
2021/11/26 11:02:40;;;;;;;8.87;2.87;;;;;;;;;;5118213;28;20287;-76
2021/11/26 11:05:09;;;;;;;7.03;2.40;;;;;;;;;;5115572;28;20556;-76
2021/11/26 11:07:41;;;;;;;7.87;2.53;;;;;;;;;;5116099;28;20201;-75
2021/11/26 11:10:09;;;;;;;9.87;2.90;;;;;;;;;;5115884;28;20727;-76
2021/11/26 11:12:39;;;;;;;7.37;2.70;;;;;;;;;;5115721;28;20536;-76
2021/11/26 11:15:08;;;;;;;8.13;2.57;;;;;;;;;;5115877;28;20323;-76
2021/11/26 11:17:35;;;;;;;6.37;2.80;;;;;;;;;;5116037;28;20201;-76
2021/11/26 11:20:06;;;;;;;8.00;2.70;;;;;;;;;;5114923;28;20601;-76
2021/11/26 11:22:34;;;;;;;9.63;2.60;;;;;;;;;;5116196;27;20203;-76
2021/11/26 11:25:01;;;;;;;7.37;2.50;;;;;;;;;;5115660;28;20229;-76
2021/11/26 11:27:30;;;;;;;9.33;2.33;;;;;;;;;;5115351;28;20290;-76
2021/11/26 11:29:59;;;;;;;5.17;1.73;;;;;;;;;;5116090;28;20304;-75
2021/11/26 11:32:26;;;;;;;6.90;1.90;;;;;;;;;;5115108;27;20285;-76
2021/11/26 11:34:54;;;;;;;6.80;2.30;;;;;;;;;;5115369;28;20200;-76
2021/11/26 11:37:23;;;;;;;7.17;2.93;;;;;;;;;;5115189;28;20729;-72
2021/11/26 11:39:52;;;;;;;8.10;3.07;;;;;;;;;;5115555;28;20287;-76
2021/11/26 11:42:28;;;;;;;6.73;2.30;;;;;;;;;;5114497;28;20240;-76
2021/11/26 11:44:56;;;;;;;8.50;3.03;;;;;;;;;;5115248;28;20247;-76
2021/11/26 11:47:26;;;;;;;7.77;2.23;;;;;;;;;;5115138;28;20205;-77
2021/11/26 11:50:04;;;;;;;7.20;2.93;;;;;;;;;;5114304;28;20198;-76
2021/11/26 11:52:39;;;;;;;7.17;3.23;;;;;;;;;;5115408;28;20258;-76
2021/11/26 11:55:06;;;;;;;9.53;3.27;;;;;;;;;;5115317;28;20289;-76
2021/11/26 11:57:33;;;;;;;8.13;2.90;;;;;;;;;;5114330;28;20288;-76
2021/11/26 12:00:10;;;;;;;8.10;2.20;;;;;;;;;;5128903;27;20283;-76
2021/11/26 12:02:39;;;;;;;8.23;2.50;;;;;;;;;;5123594;27;20201;-76
2021/11/26 12:05:06;;;;;;;6.47;2.40;;;;;;;;;;5114799;28;20233;-76
2021/11/26 12:07:34;;;;;;;8.10;2.70;;;;;;;;;;5121089;27;20235;-77
2021/11/26 12:10:02;;;;;;;5.83;2.30;;;;;;;;;;5094604;28;20284;-76
2021/11/26 12:12:30;;;;;;;6.97;2.60;;;;;;;;;;5094727;28;20214;-76
2021/11/26 12:14:58;;;;;;;8.27;3.50;;;;;;;;;;5094047;28;20744;-77
2021/11/26 12:17:26;;;;;;;7.20;3.43;;;;;;;;;;5112166;28;20280;-76
2021/11/26 12:20:01;;;;;;;8.97;3.47;;;;;;;;;;5114344;28;20218;-76
2021/11/26 12:22:35;;;;;;;8.13;3.30;;;;;;;;;;5122655;27;20200;-76
2021/11/26 12:25:07;;;;;;;6.43;2.07;;;;;;;;;;5117089;27;20243;-76
2021/11/26 12:27:40;;;;;;;7.27;2.27;;;;;;;;;;5114997;28;20229;-76
2021/11/26 12:30:16;;;;;;;7.67;2.00;;;;;;;;;;5114489;28;20205;-76
2021/11/26 12:32:44;;;;;;;5.60;2.13;;;;;;;;;;5114249;28;20791;-76
2021/11/26 12:35:13;;;;;;;5.33;2.37;;;;;;;;;;5114779;28;20254;-76
2021/11/26 12:37:40;;;;;;;7.17;2.47;;;;;;;;;;5114846;28;20280;-76
2021/11/26 12:40:10;;;;;;;6.13;1.97;;;;;;;;;;5114189;27;20238;-76
2021/11/26 12:42:38;;;;;;;5.90;2.23;;;;;;;;;;5114583;28;20574;-76
2021/11/26 12:45:07;;;;;;;7.33;1.97;;;;;;;;;;5114005;28;20197;-76
2021/11/26 12:47:36;;;;;;;7.93;2.23;;;;;;;;;;5114073;28;20221;-75
2021/11/26 12:52:51;;;;;;;6.90;2.70;;;;;;;;;;5114459;28;20201;-76
2021/11/26 12:55:18;;;;;;;5.70;2.40;;;;;;;;;;5113853;28;20199;-76
2021/11/26 12:57:52;;;;;;;9.50;2.60;;;;;;;;;;5114386;28;20202;-75
2021/11/26 13:00:19;;;;;;;6.67;2.43;;;;;;;;;;5113897;28;20200;-76
2021/11/26 13:02:46;;;;;;;9.83;2.80;;;;;;;;;;5114041;28;20288;-76
2021/11/26 13:05:14;;;;;;;8.90;2.70;;;;;;;;;;5113443;28;20290;-76
2021/11/26 13:07:42;;;;;;;7.80;2.50;;;;;;;;;;5113676;28;20310;-76
2021/11/26 13:10:13;;;;;;;9.23;4.00;;;;;;;;;;5114007;28;20238;-76
2021/11/26 13:12:41;;;;;;;8.13;4.37;;;;;;;;;;5114049;28;20234;-75
2021/11/26 13:15:09;;;;;;;9.40;4.30;;;;;;;;;;5113445;28;20752;-76
2021/11/26 13:17:37;;;;;;;9.00;4.20;;;;;;;;;;5113599;28;20240;-76
2021/11/26 13:20:10;;;;;;;8.40;3.00;;;;;;;;;;5113138;27;20646;-76
2021/11/26 13:22:44;;;;;;;8.27;2.97;;;;;;;;;;5099481;27;20674;-76
2021/11/26 13:25:13;;;;;;;7.60;2.87;;;;;;;;;;5113552;27;20209;-76
2021/11/26 13:27:50;;;;;;;6.07;2.87;;;;;;;;;;5112986;28;20312;-76
2021/11/26 13:30:19;;;;;;;8.77;3.00;;;;;;;;;;5112997;28;20241;-77
2021/11/26 13:32:46;;;;;;;6.73;2.73;;;;;;;;;;5113532;28;20202;-76
2021/11/26 13:35:13;;;;;;;8.53;2.90;;;;;;;;;;5113808;28;20230;-76
2021/11/26 13:37:50;;;;;;;8.43;3.37;;;;;;;;;;5113071;28;20281;-76
2021/11/26 13:40:18;;;;;;;10.60;2.80;;;;;;;;;;5113224;28;20209;-76
2021/11/26 13:42:50;;;;;;;8.20;3.20;;;;;;;;;;5113511;28;20225;-76
2021/11/26 13:45:17;;;;;;;6.67;2.70;;;;;;;;;;5112810;28;20202;-76
2021/11/26 13:47:45;;;;;;;5.50;2.27;;;;;;;;;;5113049;28;20261;-76
2021/11/26 13:50:12;;;;;;;6.43;2.93;;;;;;;;;;5112887;28;20284;-77
2021/11/26 13:52:41;;;;;;;10.10;2.53;;;;;;;;;;5112926;28;20230;-77
2021/11/26 13:55:09;;;;;;;8.00;2.93;;;;;;;;;;5113243;28;20720;-76
2021/11/26 13:57:37;;;;;;;7.57;2.33;;;;;;;;;;5112913;28;20197;-76
2021/11/26 14:00:07;;;;;;;9.07;2.83;;;;;;;;;;5113082;28;20198;-76
2021/11/26 14:02:45;;;;;;;7.00;2.90;;;;;;;;;;5112689;28;20281;-76
2021/11/26 14:05:12;;;;;;;6.20;2.73;;;;;;;;;;5113069;28;20299;-76
2021/11/26 14:07:39;;;;;;;8.77;2.83;;;;;;;;;;5112877;28;20318;-76
2021/11/26 14:10:08;;;;;;;8.13;2.30;;;;;;;;;;5113081;28;20278;-76
2021/11/26 14:12:35;;;;;;;9.63;2.90;;;;;;;;;;5112302;28;20282;-74
2021/11/26 14:15:04;;;;;;;7.13;2.30;;;;;;;;;;5099263;28;20309;-76
2021/11/26 14:17:33;;;;;;;8.43;2.13;;;;;;;;;;5112466;28;20281;-76
2021/11/26 14:20:01;;;;;;;9.30;2.30;;;;;;;;;;5112305;28;20226;-76
2021/11/26 14:22:29;;;;;;;5.67;2.17;;;;;;;;;;5112614;28;20283;-76
2021/11/26 14:25:04;;;;;;;6.20;2.23;;;;;;;;;;5112378;28;20253;-76
2021/11/26 14:27:32;;;;;;;8.40;3.13;;;;;;;;;;5112297;28;20742;-76
2021/11/26 14:30:02;;;;;;;8.53;3.17;;;;;;;;;;5111809;28;20289;-77
2021/11/26 14:32:31;;;;;;;8.60;2.50;;;;;;;;;;5112579;28;20215;-76
2021/11/26 14:35:10;;;;;;;8.37;2.50;;;;;;;;;;5112055;28;20232;-76
2021/11/26 14:37:37;;;;;;;7.07;2.60;;;;;;;;;;5111387;28;20199;-76
2021/11/26 14:40:15;;;;;;;8.10;1.87;;;;;;;;;;5112267;28;20238;-76
2021/11/26 14:42:42;;;;;;;7.30;1.50;;;;;;;;;;5111965;28;20615;-76
2021/11/26 14:45:10;;;;;;;9.97;2.33;;;;;;;;;;5112274;28;20234;-76
2021/11/26 14:47:39;;;;;;;5.00;1.80;;;;;;;;;;5112081;28;20264;-76
2021/11/26 14:50:16;;;;;;;9.00;2.70;;;;;;;;;;5112236;28;20282;-76
2021/11/26 14:52:43;;;;;;;9.67;3.30;;;;;;;;;;5112236;28;20922;-76
2021/11/26 14:55:12;;;;;;;7.80;2.50;;;;;;;;;;5112016;28;20244;-76
2021/11/26 14:57:39;;;;;;;8.30;2.17;;;;;;;;;;5111626;28;20280;-76